createdAt,value
2022-07-26T00:00:21.399Z,99916.03
2022-07-26T00:02:52.188Z,99907.91
2022-07-26T00:05:23.071Z,99908.38
2022-07-26T00:08:11.173Z,99903.13
2022-07-26T00:10:46.479Z,99903.97
2022-07-26T00:13:19.748Z,99904.44
2022-07-26T00:15:52.443Z,99904.06
2022-07-26T00:18:23.543Z,99903.69
2022-07-26T00:20:55.569Z,99899.22
2022-07-26T00:23:29.131Z,99900.06
2022-07-26T00:26:00.234Z,99902.91
2022-07-26T00:28:31.165Z,99899.22
2022-07-26T00:31:02.693Z,99896.84
2022-07-26T00:33:33.916Z,99899.31
2022-07-26T00:36:05.207Z,99897.69
2022-07-26T00:38:38.996Z,99890.84
2022-07-26T00:41:11.281Z,99896.16
2022-07-26T00:43:57.541Z,99891.72
2022-07-26T00:46:28.826Z,99889.31
2022-07-26T00:49:00.553Z,99887.69
2022-07-26T00:51:33.571Z,99892.56
2022-07-26T00:54:06.578Z,99890.09
2022-07-26T00:56:37.698Z,99894.19
2022-07-26T00:59:08.752Z,99891.78
2022-07-26T01:01:39.721Z,99884.03
2022-07-26T01:04:11.041Z,99885.31
2022-07-26T01:06:42.561Z,99883.69
2022-07-26T01:09:16.094Z,99882.47
2022-07-26T01:11:47.764Z,99891.00
2022-07-26T01:14:19.149Z,99896.69
2022-07-26T01:16:50.361Z,99889.72
2022-07-26T01:19:22.669Z,99892.56
2022-07-26T01:21:56.057Z,99889.72
2022-07-26T01:24:27.093Z,99890.16
2022-07-26T01:26:58.140Z,99897.91
2022-07-26T01:29:35.426Z,99891.41
2022-07-26T01:32:08.040Z,99891.84
2022-07-26T01:34:39.212Z,99892.63
2022-07-26T01:37:12.247Z,99890.63
2022-07-26T01:39:44.922Z,99890.63
2022-07-26T01:42:15.853Z,99891.41
2022-07-26T01:44:46.808Z,99895.84
2022-07-26T01:47:17.244Z,99894.69
2022-07-26T01:49:48.260Z,99899.56
2022-07-26T01:52:21.913Z,99894.31
2022-07-26T01:54:52.827Z,99894.78
2022-07-26T01:57:23.794Z,99896.78
2022-07-26T01:59:56.149Z,99898.41
2022-07-26T02:02:27.408Z,99900.47
2022-07-26T02:05:01.401Z,99896.00
2022-07-26T02:07:42.508Z,99893.56
2022-07-26T02:10:17.755Z,99890.72
2022-07-26T02:12:49.929Z,99894.84
2022-07-26T02:15:20.843Z,99893.56
2022-07-26T02:17:51.373Z,99906.22
2022-07-26T02:20:22.583Z,99897.69
2022-07-26T02:22:56.372Z,99907.44
2022-07-26T02:25:27.516Z,99897.31
2022-07-26T02:27:58.653Z,99894.47
2022-07-26T02:30:30.422Z,99904.22
2022-07-26T02:33:01.441Z,99905.84
2022-07-26T02:35:33.268Z,99903.41
2022-07-26T02:38:08.446Z,99914.00
2022-07-26T02:40:41.092Z,99907.53
2022-07-26T02:43:14.648Z,99903.47
2022-07-26T02:45:45.704Z,99905.94
2022-07-26T02:48:33.999Z,99912.50
2022-07-26T02:51:06.683Z,99910.50
2022-07-26T02:53:39.741Z,99910.13
2022-07-26T02:56:11.098Z,99909.78
2022-07-26T02:58:41.695Z,99913.84
2022-07-26T03:01:13.081Z,99917.13
2022-07-26T03:03:50.160Z,99913.47
2022-07-26T03:06:22.657Z,99912.66
2022-07-26T03:08:56.185Z,99915.50
2022-07-26T03:11:27.023Z,99911.50
2022-07-26T03:13:58.104Z,99919.66
2022-07-26T03:16:29.800Z,99917.69
2022-07-26T03:19:02.853Z,99927.44
2022-07-26T03:21:33.702Z,99923.78
2022-07-26T03:24:06.878Z,99931.53
2022-07-26T03:26:37.830Z,99922.19
2022-07-26T03:29:09.178Z,99929.47
2022-07-26T03:31:40.070Z,99929.06
2022-07-26T03:34:11.023Z,99925.00
2022-07-26T03:36:44.661Z,99920.47
2022-07-26T03:39:18.926Z,99930.16
2022-07-26T03:41:49.954Z,99926.88
2022-07-26T03:44:20.594Z,99926.03
2022-07-26T03:46:51.836Z,99931.25
2022-07-26T03:49:23.224Z,99920.28
2022-07-26T03:51:55.921Z,99930.41
2022-07-26T03:54:29.508Z,99933.63
2022-07-26T03:56:58.616Z,99931.16
2022-07-26T03:59:30.501Z,99927.09
2022-07-26T04:02:01.739Z,99936.41
2022-07-26T04:04:32.950Z,99940.84
2022-07-26T04:07:04.467Z,99933.56
2022-07-26T04:09:39.074Z,99933.97
2022-07-26T04:12:10.538Z,99936.00
2022-07-26T04:14:43.212Z,99938.44
2022-07-26T04:17:13.859Z,99943.28
2022-07-26T04:19:45.021Z,99941.69
2022-07-26T04:22:16.508Z,99944.53
2022-07-26T04:24:49.156Z,99943.28
2022-07-26T04:27:19.976Z,99940.03
2022-07-26T04:29:50.532Z,99950.53
2022-07-26T04:32:21.396Z,99943.97
2022-07-26T04:34:52.655Z,99952.88
2022-07-26T04:37:23.834Z,99961.78
2022-07-26T04:39:56.594Z,99966.59
2022-07-26T04:42:28.164Z,99962.50
2022-07-26T04:45:01.137Z,99960.50
2022-07-26T04:47:35.017Z,99963.69
2022-07-26T04:50:06.450Z,99964.44
2022-07-26T04:52:38.236Z,99966.03
2022-07-26T04:55:14.157Z,99957.44
2022-07-26T04:57:47.345Z,99965.13
2022-07-26T05:00:24.926Z,99967.88
2022-07-26T05:02:58.788Z,99962.56
2022-07-26T05:05:32.295Z,99965.34
2022-07-26T05:08:06.384Z,99962.44
2022-07-26T05:10:40.036Z,99968.88
2022-07-26T05:13:11.410Z,99961.50
2022-07-26T05:15:42.776Z,99957.81
2022-07-26T05:18:14.354Z,99959.34
2022-07-26T05:20:46.256Z,99958.44
2022-07-26T05:23:17.409Z,99963.72
2022-07-26T05:25:50.364Z,99959.19
2022-07-26T05:28:21.494Z,99960.34
2022-07-26T05:30:51.885Z,99961.09
2022-07-26T05:33:23.164Z,99957.38
2022-07-26T05:35:54.089Z,99956.03
2022-07-26T05:38:26.331Z,99959.19
2022-07-26T05:40:58.793Z,99955.38
2022-07-26T05:43:41.465Z,99949.19
2022-07-26T05:46:13.813Z,99948.66
2022-07-26T05:48:44.938Z,99943.75
2022-07-26T05:51:15.516Z,99951.75
2022-07-26T05:53:46.053Z,99949.28
2022-07-26T05:56:19.191Z,99951.25
2022-07-26T05:58:50.363Z,99947.06
2022-07-26T06:01:21.949Z,99949.38
2022-07-26T06:03:55.495Z,99952.19
2022-07-26T06:06:26.255Z,99951.19
2022-07-26T06:08:57.751Z,99957.25
2022-07-26T06:11:31.247Z,99953.09
2022-07-26T06:14:01.921Z,99951.75
2022-07-26T06:16:32.659Z,99956.13
2022-07-26T06:19:03.864Z,99952.78
2022-07-26T06:21:35.197Z,99958.31
2022-07-26T06:24:06.456Z,99953.66
2022-07-26T06:26:40.896Z,99958.41
2022-07-26T06:29:12.214Z,99958.25
2022-07-26T06:31:43.013Z,99967.50
2022-07-26T06:34:14.258Z,99966.16
2022-07-26T06:36:45.240Z,99966.44
2022-07-26T06:39:17.224Z,99962.25
2022-07-26T06:41:50.305Z,99963.34
2022-07-26T06:44:21.288Z,99957.09
2022-07-26T06:46:52.588Z,99965.13
2022-07-26T06:49:23.253Z,99962.53
2022-07-26T06:51:54.323Z,99966.09
2022-07-26T06:54:24.891Z,99967.59
2022-07-26T06:56:58.270Z,99967.84
2022-07-26T06:59:29.279Z,99973.03
2022-07-26T07:02:00.723Z,99972.47
2022-07-26T07:04:32.985Z,99977.66
2022-07-26T07:07:06.507Z,99968.09
2022-07-26T07:09:38.283Z,99968.81
2022-07-26T07:12:12.915Z,99971.09
2022-07-26T07:14:44.302Z,99984.06
2022-07-26T07:17:19.869Z,99974.91
2022-07-26T07:19:51.511Z,99978.03
2022-07-26T07:22:22.202Z,99982.84
2022-07-26T07:24:52.648Z,99975.06
2022-07-26T07:27:25.440Z,99994.97
2022-07-26T07:29:57.969Z,99980.25
2022-07-26T07:32:29.672Z,99979.66
2022-07-26T07:35:00.880Z,99975.91
2022-07-26T07:37:52.409Z,99976.19
2022-07-26T07:40:23.702Z,99976.09
2022-07-26T07:42:57.195Z,99985.69
2022-07-26T07:45:28.129Z,99981.94
2022-07-26T07:47:58.743Z,99979.44
2022-07-26T07:50:30.367Z,99982.63
2022-07-26T07:53:00.894Z,99979.31
2022-07-26T07:55:46.090Z,99974.38
2022-07-26T07:58:20.406Z,99975.09
2022-07-26T08:00:51.225Z,99972.94
2022-07-26T08:03:23.139Z,99967.09
2022-07-26T08:05:54.105Z,99975.56
2022-07-26T08:08:25.289Z,99972.59
2022-07-26T08:10:57.393Z,99972.47
2022-07-26T08:13:30.220Z,99981.78
2022-07-26T08:16:02.173Z,99973.56
2022-07-26T08:18:33.170Z,99974.69
2022-07-26T08:21:05.983Z,99972.19
2022-07-26T08:23:36.950Z,99968.06
2022-07-26T08:26:08.325Z,99963.16
2022-07-26T08:28:49.295Z,99961.91
2022-07-26T08:31:31.324Z,99967.16
2022-07-26T08:34:02.733Z,99964.97
2022-07-26T08:36:33.592Z,99957.53
2022-07-26T08:39:04.830Z,99956.16
2022-07-26T08:41:35.679Z,99966.69
2022-07-26T08:44:15.002Z,99964.50
2022-07-26T08:46:46.830Z,99958.34
2022-07-26T08:49:18.746Z,99966.81
2022-07-26T08:51:50.845Z,99960.19
2022-07-26T08:54:21.708Z,99960.84
2022-07-26T08:56:57.216Z,99959.94
2022-07-26T08:59:32.044Z,99959.03
2022-07-26T09:02:06.384Z,99963.84
2022-07-26T09:04:44.275Z,99959.72
2022-07-26T09:07:18.944Z,99958.44
2022-07-26T09:10:08.020Z,99958.31
2022-07-26T09:12:40.956Z,99957.97
2022-07-26T09:15:26.819Z,99951.00
2022-07-26T09:17:59.867Z,99952.59
2022-07-26T09:20:32.499Z,99954.22
2022-07-26T09:23:06.717Z,99950.09
2022-07-26T09:25:40.412Z,99958.56
2022-07-26T09:28:27.940Z,99956.03
2022-07-26T09:31:02.598Z,99951.09
2022-07-26T09:33:50.554Z,99949.06
2022-07-26T09:36:23.046Z,99942.06
2022-07-26T09:38:57.647Z,99940.34
2022-07-26T09:41:31.405Z,99941.47
2022-07-26T09:44:05.770Z,99951.19
2022-07-26T09:46:55.007Z,99938.47
2022-07-26T09:49:40.035Z,99942.94
2022-07-26T09:52:19.768Z,99941.22
2022-07-26T09:54:51.836Z,99934.22
2022-07-26T09:57:23.405Z,99944.41
2022-07-26T09:59:54.562Z,99941.44
2022-07-26T10:02:27.598Z,99936.53
2022-07-26T10:04:58.908Z,99939.38
2022-07-26T10:07:29.959Z,99934.44
2022-07-26T10:10:15.802Z,99933.19
2022-07-26T10:12:47.311Z,99938.13
2022-07-26T10:15:47.006Z,99938.13
2022-07-26T10:18:50.989Z,99934.00
2022-07-26T10:21:24.583Z,99936.38
2022-07-26T10:23:58.117Z,99933.88
2022-07-26T10:26:46.263Z,99935.78
2022-07-26T10:29:33.011Z,99933.72
2022-07-26T10:32:23.291Z,99936.59
2022-07-26T10:34:56.020Z,99936.25
2022-07-26T10:37:31.022Z,99931.44
2022-07-26T10:40:23.121Z,99933.19
2022-07-26T10:42:54.749Z,99930.78
2022-07-26T10:45:26.714Z,99929.53
2022-07-26T10:48:19.217Z,99934.78
2022-07-26T10:50:54.160Z,99929.53
2022-07-26T10:53:27.765Z,99928.28
2022-07-26T10:56:02.369Z,99927.00
2022-07-26T10:58:46.254Z,99920.47
2022-07-26T11:01:17.967Z,99929.88
2022-07-26T11:03:49.853Z,99924.94
2022-07-26T11:06:23.857Z,99922.41
2022-07-26T11:08:55.017Z,99926.41
2022-07-26T11:11:34.454Z,99916.56
2022-07-26T11:14:10.687Z,99916.56
2022-07-26T11:16:44.295Z,99925.97
2022-07-26T11:19:19.488Z,99925.50
2022-07-26T11:22:01.290Z,99911.53
2022-07-26T11:24:32.177Z,99917.28
2022-07-26T11:27:08.470Z,99919.66
2022-07-26T11:29:41.678Z,99916.78
2022-07-26T11:32:22.417Z,99918.84
2022-07-26T11:35:02.665Z,99917.28
2022-07-26T11:37:36.091Z,99910.25
2022-07-26T11:40:07.481Z,99906.25
2022-07-26T11:42:38.497Z,99909.13
2022-07-26T11:45:15.312Z,99910.72
2022-07-26T11:47:46.536Z,99911.53
2022-07-26T11:50:22.693Z,99907.38
2022-07-26T11:52:57.148Z,99906.59
2022-07-26T11:55:47.065Z,99901.66
2022-07-26T11:58:19.052Z,99907.88
2022-07-26T12:00:51.077Z,99906.59
2022-07-26T12:03:22.698Z,99899.28
2022-07-26T12:06:08.140Z,99896.41
2022-07-26T12:08:55.750Z,99897.66
2022-07-26T12:11:39.052Z,99898.94
2022-07-26T12:14:15.055Z,99902.59
2022-07-26T12:16:51.601Z,99896.88
2022-07-26T12:19:33.653Z,99898.94
2022-07-26T12:22:15.218Z,99890.91
2022-07-26T12:25:03.622Z,99888.63
2022-07-26T12:27:36.421Z,99890.84
2022-07-26T12:30:19.307Z,99885.25
2022-07-26T12:32:53.117Z,99882.47
2022-07-26T12:35:36.170Z,99882.47
2022-07-26T12:38:09.560Z,99885.47
2022-07-26T12:40:46.189Z,99886.75
2022-07-26T12:43:16.995Z,99882.75
2022-07-26T12:45:47.872Z,99896.28
2022-07-26T12:48:18.766Z,99889.38
2022-07-26T12:50:49.748Z,99891.47
2022-07-26T12:53:20.909Z,99884.94
2022-07-26T12:55:53.889Z,99887.00
2022-07-26T12:58:24.807Z,99885.53
2022-07-26T13:00:56.158Z,99880.28
2022-07-26T13:03:27.448Z,99884.06
2022-07-26T13:05:59.088Z,99881.31
2022-07-26T13:08:30.010Z,99875.69
2022-07-26T13:11:01.731Z,99880.59
2022-07-26T13:13:32.543Z,99868.50
2022-07-26T13:16:05.545Z,99879.59
2022-07-26T13:18:39.924Z,99878.13
2022-07-26T13:21:11.576Z,99876.16
2022-07-26T13:23:43.437Z,99875.03
2022-07-26T13:26:17.123Z,99875.16
2022-07-26T13:28:49.933Z,99865.88
2022-07-26T13:31:21.200Z,99864.41
2022-07-26T13:33:51.561Z,99875.19
2022-07-26T13:36:23.106Z,99871.16
2022-07-26T13:38:54.794Z,99867.97
2022-07-26T13:41:42.816Z,99873.38
2022-07-26T13:44:14.930Z,99873.94
2022-07-26T13:46:46.465Z,99869.47
2022-07-26T13:49:17.501Z,99873.66
2022-07-26T13:52:01.617Z,99875.03
2022-07-26T13:54:37.270Z,99869.44
2022-07-26T13:57:10.336Z,99868.66
2022-07-26T13:59:42.527Z,99867.50
2022-07-26T14:02:13.636Z,99870.03
2022-07-26T14:04:45.309Z,99867.97
2022-07-26T14:07:16.664Z,99865.56
2022-07-26T14:09:47.885Z,99859.03
2022-07-26T14:12:21.671Z,99861.53
2022-07-26T14:14:52.713Z,99858.03
2022-07-26T14:17:24.217Z,99859.75
2022-07-26T14:19:54.895Z,99858.56
2022-07-26T14:22:26.019Z,99859.84
2022-07-26T14:24:57.230Z,99849.69
2022-07-26T14:27:30.521Z,99856.19
2022-07-26T14:30:04.289Z,99855.84
2022-07-26T14:32:34.592Z,99855.06
2022-07-26T14:35:05.997Z,99855.06
2022-07-26T14:37:43.684Z,99864.06
2022-07-26T14:40:18.781Z,99863.75
2022-07-26T14:42:51.572Z,99865.00
2022-07-26T14:45:23.973Z,99863.81
2022-07-26T14:47:55.399Z,99863.50
2022-07-26T14:50:26.591Z,99868.41
2022-07-26T14:52:58.165Z,99856.63
2022-07-26T14:55:29.965Z,99867.25
2022-07-26T14:58:04.001Z,99872.16
2022-07-26T15:00:37.747Z,99866.09
2022-07-26T15:03:12.205Z,99869.75
2022-07-26T15:05:43.449Z,99863.34
2022-07-26T15:08:13.732Z,99878.06
2022-07-26T15:10:45.004Z,99872.81
2022-07-26T15:13:18.578Z,99881.03
2022-07-26T15:15:48.957Z,99882.75
2022-07-26T15:18:20.781Z,99878.75
2022-07-26T15:20:52.035Z,99871.88
2022-07-26T15:23:23.193Z,99886.63
2022-07-26T15:25:54.497Z,99874.84
2022-07-26T15:28:27.530Z,99882.63
2022-07-26T15:30:58.575Z,99878.97
2022-07-26T15:33:29.818Z,99882.75
2022-07-26T15:36:05.681Z,99881.13
2022-07-26T15:38:38.161Z,99873.81
2022-07-26T15:41:09.931Z,99879.19
2022-07-26T15:43:49.127Z,99873.94
2022-07-26T15:46:20.462Z,99879.72
2022-07-26T15:48:54.878Z,99882.69
2022-07-26T15:51:26.541Z,99875.84
2022-07-26T15:53:58.136Z,99877.09
2022-07-26T15:56:29.681Z,99880.88
2022-07-26T15:59:03.373Z,99879.34
2022-07-26T16:01:35.481Z,99876.22
2022-07-26T16:04:08.523Z,99877.91
2022-07-26T16:06:39.937Z,99881.22
2022-07-26T16:09:17.284Z,99884.09
2022-07-26T16:11:48.673Z,99884.09
2022-07-26T16:14:21.974Z,99889.44
2022-07-26T16:16:53.158Z,99887.81
2022-07-26T16:19:24.609Z,99888.75
2022-07-26T16:21:56.042Z,99886.78
2022-07-26T16:24:28.976Z,99889.66
2022-07-26T16:27:04.678Z,99888.03
2022-07-26T16:29:43.482Z,99884.81
2022-07-26T16:32:16.523Z,99891.78
2022-07-26T16:34:47.602Z,99880.81
2022-07-26T16:37:18.775Z,99896.00
2022-07-26T16:39:50.191Z,99896.44
2022-07-26T16:42:22.521Z,99893.69
2022-07-26T16:44:55.087Z,99897.81
2022-07-26T16:47:26.207Z,99902.34
2022-07-26T16:49:58.013Z,99908.06
2022-07-26T16:52:29.658Z,99906.47
2022-07-26T16:55:01.994Z,99908.50
2022-07-26T16:57:33.135Z,99911.34
2022-07-26T17:00:07.684Z,99907.72
2022-07-26T17:02:38.978Z,99912.59
2022-07-26T17:05:11.922Z,99909.41
2022-07-26T17:07:42.954Z,99912.25
2022-07-26T17:10:14.853Z,99917.16
2022-07-26T17:12:46.721Z,99918.41
2022-07-26T17:15:22.023Z,99913.16
2022-07-26T17:17:52.806Z,99913.56
2022-07-26T17:20:52.955Z,99917.72
2022-07-26T17:23:23.840Z,99917.78
2022-07-26T17:25:54.553Z,99917.41
2022-07-26T17:28:28.781Z,99928.47
2022-07-26T17:31:05.762Z,99928.94
2022-07-26T17:33:40.401Z,99933.03
2022-07-26T17:36:26.499Z,99932.19
2022-07-26T17:38:57.778Z,99928.56
2022-07-26T17:41:33.730Z,99944.06
2022-07-26T17:44:05.204Z,99935.94
2022-07-26T17:46:39.138Z,99938.47
2022-07-26T17:49:10.257Z,99941.75
2022-07-26T17:51:42.524Z,99948.25
2022-07-26T17:54:13.493Z,99947.44
2022-07-26T17:56:44.887Z,99948.69
2022-07-26T17:59:15.945Z,99958.84
2022-07-26T18:01:50.597Z,99953.16
2022-07-26T18:04:24.823Z,99956.47
2022-07-26T18:06:56.215Z,99954.84
2022-07-26T18:09:27.768Z,99957.69
2022-07-26T18:11:59.724Z,99954.06
2022-07-26T18:14:31.543Z,99958.94
2022-07-26T18:17:04.386Z,99962.25
2022-07-26T18:19:35.162Z,99950.94
2022-07-26T18:22:06.619Z,99956.75
2022-07-26T18:24:38.052Z,99956.78
2022-07-26T18:27:09.442Z,99960.88
2022-07-26T18:29:40.911Z,99965.03
2022-07-26T18:32:15.917Z,99965.03
2022-07-26T18:34:52.347Z,99957.72
2022-07-26T18:37:25.216Z,99960.97
2022-07-26T18:39:58.224Z,99957.34
2022-07-26T18:42:29.870Z,99958.13
2022-07-26T18:45:01.304Z,99957.78
2022-07-26T18:47:34.561Z,99956.53
2022-07-26T18:50:05.494Z,99958.59
2022-07-26T18:52:37.241Z,99952.88
2022-07-26T18:55:12.855Z,99951.28
2022-07-26T18:57:46.116Z,99951.28
2022-07-26T19:00:20.741Z,99949.66
2022-07-26T19:02:55.053Z,99956.63
2022-07-26T19:05:26.218Z,99951.81
2022-07-26T19:08:05.938Z,99957.59
2022-07-26T19:10:37.751Z,99956.00
2022-07-26T19:13:10.293Z,99960.88
2022-07-26T19:15:41.679Z,99960.53
2022-07-26T19:18:16.950Z,99960.53
2022-07-26T19:20:48.552Z,99964.63
2022-07-26T19:23:19.821Z,99960.94
2022-07-26T19:25:51.082Z,99966.66
2022-07-26T19:28:22.156Z,99963.78
2022-07-26T19:30:53.532Z,99952.38
2022-07-26T19:33:26.692Z,99950.72
2022-07-26T19:35:58.413Z,99952.38
2022-07-26T19:38:32.177Z,99947.94
2022-07-26T19:41:04.979Z,99954.88
2022-07-26T19:43:35.919Z,99957.38
2022-07-26T19:46:07.217Z,99954.97
2022-07-26T19:48:40.309Z,99947.66
2022-07-26T19:51:11.207Z,99951.75
2022-07-26T19:53:41.996Z,99943.19
2022-07-26T19:56:13.829Z,99943.19
2022-07-26T19:58:46.663Z,99949.34
2022-07-26T20:01:18.470Z,99946.13
2022-07-26T20:03:50.666Z,99945.34
2022-07-26T20:06:21.369Z,99951.47
2022-07-26T20:08:52.942Z,99949.88
2022-07-26T20:11:25.532Z,99945.84
2022-07-26T20:13:57.058Z,99945.94
2022-07-26T20:16:28.642Z,99949.25
2022-07-26T20:19:01.354Z,99950.84
2022-07-26T20:21:32.557Z,99948.44
2022-07-26T20:24:03.763Z,99939.47
2022-07-26T20:26:35.067Z,99941.47
2022-07-26T20:29:07.433Z,99942.72
2022-07-26T20:31:39.569Z,99949.25
2022-07-26T20:34:12.374Z,99939.50
2022-07-26T20:36:43.470Z,99936.31
2022-07-26T20:39:14.571Z,99933.47
2022-07-26T20:41:46.306Z,99936.75
2022-07-26T20:44:19.891Z,99935.59
2022-07-26T20:46:53.404Z,99931.59
2022-07-26T20:49:26.602Z,99936.91
2022-07-26T20:51:57.348Z,99942.63
2022-07-26T20:54:31.364Z,99932.47
2022-07-26T20:57:04.176Z,99932.91
2022-07-26T20:59:35.702Z,99932.09
2022-07-26T21:02:06.636Z,99939.03
2022-07-26T21:04:40.157Z,99930.50
2022-07-26T21:07:11.676Z,99930.16
2022-07-26T21:09:44.776Z,99935.03
2022-07-26T21:12:15.979Z,99937.97
2022-07-26T21:14:47.983Z,99942.88
2022-07-26T21:17:19.619Z,99928.63
2022-07-26T21:19:53.318Z,99930.66
2022-07-26T21:22:23.470Z,99924.97
2022-07-26T21:24:54.605Z,99928.63
2022-07-26T21:27:25.709Z,99925.31
2022-07-26T21:29:57.950Z,99924.97
2022-07-26T21:32:31.742Z,99928.25
2022-07-26T21:35:05.836Z,99926.66
2022-07-26T21:37:37.285Z,99923.81
2022-07-26T21:40:10.481Z,99926.19
2022-07-26T21:42:41.686Z,99918.47
2022-07-26T21:45:13.351Z,99922.94
2022-07-26T21:47:44.115Z,99925.31
2022-07-26T21:50:17.398Z,99921.22
2022-07-26T21:52:48.161Z,99923.25
2022-07-26T21:55:19.607Z,99917.56
2022-07-26T21:57:52.228Z,99918.38
2022-07-26T22:00:23.729Z,99912.31
2022-07-26T22:02:54.064Z,99908.69
2022-07-26T22:05:43.410Z,99909.94
2022-07-26T22:08:16.163Z,99914.00
2022-07-26T22:10:48.781Z,99917.28
2022-07-26T22:13:20.376Z,99903.03
2022-07-26T22:15:51.650Z,99903.03
2022-07-26T22:18:22.414Z,99900.63
2022-07-26T22:20:56.334Z,99901.84
2022-07-26T22:23:30.736Z,99894.56
2022-07-26T22:26:03.378Z,99899.47
2022-07-26T22:28:35.111Z,99888.06
2022-07-26T22:31:07.373Z,99893.75
2022-07-26T22:33:38.385Z,99890.09
2022-07-26T22:36:13.524Z,99891.34
2022-07-26T22:38:45.047Z,99888.50
2022-07-26T22:41:16.653Z,99889.75
2022-07-26T22:43:46.995Z,99882.47
2022-07-26T22:46:17.965Z,99888.16
2022-07-26T22:48:59.168Z,99886.53
2022-07-26T22:51:32.336Z,99884.94
2022-07-26T22:54:03.162Z,99883.31
2022-07-26T22:56:34.522Z,99884.56
2022-07-26T22:59:06.057Z,99885.81
2022-07-26T23:01:37.718Z,99879.31
2022-07-26T23:04:08.661Z,99879.31
2022-07-26T23:06:41.632Z,99876.09
2022-07-26T23:09:14.109Z,99884.28
2022-07-26T23:11:46.333Z,99876.97
2022-07-26T23:14:18.708Z,99873.75
2022-07-26T23:16:49.904Z,99878.31
2022-07-26T23:19:21.755Z,99875.09
2022-07-26T23:21:54.226Z,99875.53
2022-07-26T23:24:25.507Z,99876.78
2022-07-26T23:26:56.759Z,99876.00
2022-07-26T23:29:27.608Z,99880.88
2022-07-26T23:31:59.337Z,99891.00
2022-07-26T23:34:30.491Z,99876.41
2022-07-26T23:37:04.271Z,99883.72
2022-07-26T23:39:35.086Z,99878.00
2022-07-26T23:42:07.838Z,99882.09
2022-07-26T23:44:40.235Z,99887.00
2022-07-26T23:47:11.003Z,99879.25
2022-07-26T23:49:44.475Z,99887.00
2022-07-26T23:52:17.732Z,99885.41
2022-07-26T23:54:48.344Z,99889.50
2022-07-26T23:57:18.726Z,99888.31
2022-07-26T23:59:50.349Z,99887.97
